Time;durP1;ratioP1;P1;durP2;ratioP2;P2;SDS_P1;SDS_P2;PMS_P1;PMS_P2;Temp;Humidity;BMP_temperature;BMP_pressure;BME280_temperature;BME280_humidity;BME280_pressure;Samples;Min_cycle;Max_cycle;Signal;HPM_P1;HPM_P2
2020/12/04 00:01:07;;;;;;;;;;;6.40;81.70;;;;;;5077445;28;19920;-87
2020/12/04 00:03:32;;;;;;;;;;;6.40;81.70;;;;;;5076929;28;20026;-88
2020/12/04 00:05:58;;;;;;;;;;;6.40;81.70;;;;;;5080925;28;20381;-87
2020/12/04 00:08:24;;;;;;;;;;;6.40;81.60;;;;;;5056946;28;19913;-87
2020/12/04 00:10:49;;;;;;;;;;;6.40;81.60;;;;;;5073946;28;19913;-87
2020/12/04 00:13:15;;;;;;;;;;;6.40;81.50;;;;;;5057104;28;19921;-88
2020/12/04 00:15:40;;;;;;;;;;;6.30;81.40;;;;;;5073649;28;19923;-87
2020/12/04 00:18:06;;;;;;;;;;;6.40;81.40;;;;;;5073923;28;19975;-87
2020/12/04 00:20:32;;;;;;;;;;;6.40;81.30;;;;;;5056718;28;19917;-86
2020/12/04 00:22:57;;;;;;;;;;;6.40;81.30;;;;;;5073568;28;19909;-88
2020/12/04 00:25:23;;;;;;;;;;;6.40;81.20;;;;;;5056430;28;19940;-87
2020/12/04 00:27:48;;;;;;;;;;;6.40;81.10;;;;;;5056657;28;19916;-88
2020/12/04 00:30:14;;;;;;;;;;;6.40;81.20;;;;;;5040399;28;19912;-87
2020/12/04 00:32:40;;;;;;;;;;;6.40;81.10;;;;;;5039850;28;19916;-88
2020/12/04 00:35:05;;;;;;;;;;;6.40;81.10;;;;;;5039894;28;19920;-88
2020/12/04 00:37:31;;;;;;;;;;;6.40;81.00;;;;;;5056522;28;19931;-87
2020/12/04 00:39:56;;;;;;;;;;;6.50;81.00;;;;;;5040060;28;19913;-87
2020/12/04 00:42:22;;;;;;;;;;;6.40;80.90;;;;;;5039883;28;20296;-87
2020/12/04 00:44:48;;;;;;;;;;;6.40;80.80;;;;;;5056698;28;19909;-87
2020/12/04 00:47:13;;;;;;;;;;;6.50;80.80;;;;;;5020551;28;20011;-87
2020/12/04 00:49:39;;;;;;;;;;;6.40;80.60;;;;;;5019805;28;19940;-87
2020/12/04 00:52:05;;;;;;;;;;;6.40;80.60;;;;;;5020182;28;19932;-88
2020/12/04 00:54:30;;;;;;;;;;;6.50;80.60;;;;;;5036252;28;19954;-88
2020/12/04 00:56:56;;;;;;;;;;;6.50;80.50;;;;;;5020054;28;19917;-88
2020/12/04 00:59:21;;;;;;;;;;;6.50;80.50;;;;;;5054318;28;19924;-86
2020/12/04 01:01:47;;;;;;;;;;;6.50;80.50;;;;;;5036663;28;20279;-88
2020/12/04 01:04:13;;;;;;;;;;;6.50;80.40;;;;;;5031287;28;19946;-88
2020/12/04 01:06:38;;;;;;;;;;;6.50;80.40;;;;;;5039309;28;19917;-88
2020/12/04 01:09:07;;;;;;;;;;;6.50;80.40;;;;;;5056413;28;20358;-88
2020/12/04 01:11:32;;;;;;;;;;;6.50;80.30;;;;;;5039590;28;20277;-89
2020/12/04 01:13:59;;;;;;;;;;;6.50;80.30;;;;;;5039976;28;19913;-88
2020/12/04 01:16:24;;;;;;;;;;;6.50;80.20;;;;;;5055711;28;20384;-87
2020/12/04 01:18:50;;;;;;;;;;;6.50;80.30;;;;;;5056001;28;19944;-89
2020/12/04 01:21:16;;;;;;;;;;;6.50;80.30;;;;;;5056029;28;20247;-89
2020/12/04 01:23:41;;;;;;;;;;;6.50;80.40;;;;;;5039035;28;19913;-87
2020/12/04 01:26:07;;;;;;;;;;;6.40;80.30;;;;;;5069142;28;19924;-89
2020/12/04 01:28:33;;;;;;;;;;;6.50;80.40;;;;;;5092730;28;19962;-89
2020/12/04 01:30:58;;;;;;;;;;;6.50;80.30;;;;;;5094117;28;20266;-88
2020/12/04 01:33:24;;;;;;;;;;;6.50;80.30;;;;;;5073859;28;19967;-88
2020/12/04 01:35:49;;;;;;;;;;;6.50;80.20;;;;;;5075657;28;19916;-87
2020/12/04 01:38:15;;;;;;;;;;;6.50;80.10;;;;;;5075658;28;19963;-89
2020/12/04 01:40:41;;;;;;;;;;;6.50;80.20;;;;;;5092375;28;19916;-88
2020/12/04 01:43:07;;;;;;;;;;;6.50;80.20;;;;;;5093825;28;19912;-88
2020/12/04 01:45:36;;;;;;;;;;;6.50;80.10;;;;;;5092047;28;19949;-89
2020/12/04 01:48:03;;;;;;;;;;;6.50;80.00;;;;;;5092580;28;20277;-88
2020/12/04 01:50:29;;;;;;;;;;;6.50;79.90;;;;;;5092156;28;19912;-89
2020/12/04 01:52:54;;;;;;;;;;;6.60;79.90;;;;;;5092336;28;20036;-88
2020/12/04 01:55:20;;;;;;;;;;;6.50;79.70;;;;;;5092503;28;19970;-89
2020/12/04 01:57:46;;;;;;;;;;;6.60;79.80;;;;;;5074959;28;20273;-87
2020/12/04 02:00:11;;;;;;;;;;;6.60;79.80;;;;;;5092310;28;19912;-89
2020/12/04 02:02:37;;;;;;;;;;;6.60;79.90;;;;;;5092094;28;19931;-89
2020/12/04 02:05:03;;;;;;;;;;;6.60;79.90;;;;;;5091655;28;19943;-89
2020/12/04 02:07:39;;;;;;;;;;;6.60;79.90;;;;;;5091801;28;19916;-88
2020/12/04 02:10:37;;;;;;;;;;;6.60;80.00;;;;;;5092525;28;19908;-88
2020/12/04 02:13:02;;;;;;;;;;;6.60;79.90;;;;;;5037294;28;19915;-88
2020/12/04 02:15:28;;;;;;;;;;;6.60;80.00;;;;;;5091355;28;19912;-87
2020/12/04 02:17:55;;;;;;;;;;;6.70;80.20;;;;;;5074854;28;20015;-88
2020/12/04 02:20:20;;;;;;;;;;;6.70;80.20;;;;;;5090046;28;19920;-88
2020/12/04 02:22:46;;;;;;;;;;;6.60;80.20;;;;;;5091815;28;19919;-89
2020/12/04 02:25:11;;;;;;;;;;;6.70;80.30;;;;;;5088771;23;19933;-81
2020/12/04 02:27:47;;;;;;;;;;;6.70;80.40;;;;;;5070709;28;20408;-81
2020/12/04 02:30:30;;;;;;;;;;;6.70;80.50;;;;;;5071387;28;19912;-81
2020/12/04 02:32:56;;;;;;;;;;;6.70;80.60;;;;;;5071997;28;19912;-81
2020/12/04 02:35:21;;;;;;;;;;;6.70;80.60;;;;;;5071196;28;19920;-81
2020/12/04 02:37:47;;;;;;;;;;;6.70;80.70;;;;;;5070491;28;19945;-81
2020/12/04 02:40:12;;;;;;;;;;;6.70;80.70;;;;;;5054162;28;19935;-81
2020/12/04 02:42:40;;;;;;;;;;;6.70;80.70;;;;;;5070481;28;19939;-81
2020/12/04 02:45:06;;;;;;;;;;;6.70;80.60;;;;;;5070816;28;19923;-81
2020/12/04 02:47:31;;;;;;;;;;;6.60;80.50;;;;;;5070455;28;19917;-81
2020/12/04 02:49:57;;;;;;;;;;;6.60;80.50;;;;;;5070900;28;20364;-81
2020/12/04 02:52:23;;;;;;;;;;;6.60;80.40;;;;;;5054055;28;19966;-81
2020/12/04 02:54:49;;;;;;;;;;;6.60;80.40;;;;;;5053316;28;19966;-81
2020/12/04 02:57:14;;;;;;;;;;;6.60;80.40;;;;;;5071885;28;19921;-81
2020/12/04 02:59:39;;;;;;;;;;;6.60;80.30;;;;;;5069923;28;20015;-81
2020/12/04 03:02:05;;;;;;;;;;;6.60;80.30;;;;;;5070538;28;19919;-81
2020/12/04 03:04:30;;;;;;;;;;;6.60;80.30;;;;;;5071124;28;20328;-81
2020/12/04 03:06:56;;;;;;;;;;;6.60;80.30;;;;;;5068782;28;19920;-81
2020/12/04 03:09:21;;;;;;;;;;;6.60;80.30;;;;;;5052782;28;19927;-81
2020/12/04 03:11:47;;;;;;;;;;;6.60;80.30;;;;;;5071098;28;20019;-81
2020/12/04 03:14:12;;;;;;;;;;;6.60;80.30;;;;;;5070294;28;19965;-81
2020/12/04 03:16:38;;;;;;;;;;;6.50;80.20;;;;;;5070126;28;19913;-81
2020/12/04 03:19:03;;;;;;;;;;;6.50;80.30;;;;;;5071882;28;20354;-81
2020/12/04 03:21:30;;;;;;;;;;;6.50;80.40;;;;;;5071368;28;20281;-81
2020/12/04 03:23:56;;;;;;;;;;;6.50;80.40;;;;;;5070392;28;19909;-82
2020/12/04 03:26:21;;;;;;;;;;;6.50;80.50;;;;;;5071610;28;19931;-82
2020/12/04 03:28:47;;;;;;;;;;;6.50;80.70;;;;;;5074663;28;19947;-81
2020/12/04 03:31:12;;;;;;;;;;;6.50;80.70;;;;;;5074462;28;19912;-81
2020/12/04 03:33:38;;;;;;;;;;;6.50;80.80;;;;;;5073688;28;19912;-81
2020/12/04 03:36:03;;;;;;;;;;;6.50;81.00;;;;;;5057481;28;19962;-81
2020/12/04 03:38:29;;;;;;;;;;;6.50;81.00;;;;;;5057128;28;19917;-80
2020/12/04 03:40:54;;;;;;;;;;;6.50;81.20;;;;;;5074146;28;19912;-81
2020/12/04 03:43:20;;;;;;;;;;;6.50;81.20;;;;;;5057434;28;19979;-81
2020/12/04 03:45:46;;;;;;;;;;;6.40;81.20;;;;;;5073687;28;19916;-81
2020/12/04 03:48:11;;;;;;;;;;;6.50;81.40;;;;;;5075247;28;19956;-81
2020/12/04 03:50:37;;;;;;;;;;;6.50;81.30;;;;;;5073589;28;20357;-82
2020/12/04 03:53:02;;;;;;;;;;;6.50;81.30;;;;;;5075277;28;19908;-81
2020/12/04 03:55:28;;;;;;;;;;;6.50;81.30;;;;;;5073649;28;20281;-81
2020/12/04 03:57:53;;;;;;;;;;;6.50;81.20;;;;;;5073864;28;19924;-81
2020/12/04 04:00:19;;;;;;;;;;;6.50;81.20;;;;;;5074998;28;20001;-81
2020/12/04 04:02:44;;;;;;;;;;;6.50;81.30;;;;;;5056466;28;19917;-81
2020/12/04 04:05:10;;;;;;;;;;;6.50;81.30;;;;;;5056961;28;19917;-81
2020/12/04 04:07:35;;;;;;;;;;;6.50;81.30;;;;;;5073412;28;19912;-81
2020/12/04 04:10:01;;;;;;;;;;;6.40;81.20;;;;;;5073684;28;19914;-81
2020/12/04 04:12:26;;;;;;;;;;;6.40;81.30;;;;;;5073710;28;19919;-81
2020/12/04 04:14:52;;;;;;;;;;;6.50;81.30;;;;;;5074049;28;19970;-81
2020/12/04 04:17:17;;;;;;;;;;;6.40;81.20;;;;;;5074676;28;19916;-81
2020/12/04 04:19:43;;;;;;;;;;;6.40;81.20;;;;;;5073160;28;20020;-81
2020/12/04 04:22:08;;;;;;;;;;;6.40;81.20;;;;;;5056269;28;19921;-81
2020/12/04 04:24:34;;;;;;;;;;;6.40;81.20;;;;;;5055567;28;20347;-81
2020/12/04 04:26:59;;;;;;;;;;;6.40;81.20;;;;;;5073554;28;19917;-81
2020/12/04 04:29:25;;;;;;;;;;;6.40;81.20;;;;;;5074184;28;19971;-81
2020/12/04 04:31:50;;;;;;;;;;;6.40;81.20;;;;;;5074096;28;19923;-81
2020/12/04 04:34:16;;;;;;;;;;;6.40;81.20;;;;;;5074189;28;19959;-81
2020/12/04 04:36:42;;;;;;;;;;;6.40;81.20;;;;;;5072640;28;19913;-81
2020/12/04 04:39:07;;;;;;;;;;;6.40;81.10;;;;;;5073650;28;19916;-81
2020/12/04 04:41:33;;;;;;;;;;;6.40;81.00;;;;;;5055948;28;19928;-81
2020/12/04 04:43:58;;;;;;;;;;;6.40;81.00;;;;;;5073536;28;19913;-81
2020/12/04 04:46:24;;;;;;;;;;;6.40;81.10;;;;;;5073544;28;19925;-81
2020/12/04 04:48:54;;;;;;;;;;;6.40;81.10;;;;;;5073972;28;19908;-81
2020/12/04 04:51:22;;;;;;;;;;;6.40;81.00;;;;;;5073860;28;19913;-82
2020/12/04 04:53:51;;;;;;;;;;;6.40;81.10;;;;;;5072983;28;19913;-81
2020/12/04 04:56:17;;;;;;;;;;;6.40;81.10;;;;;;5069651;28;19924;-81
2020/12/04 04:58:42;;;;;;;;;;;6.50;81.10;;;;;;5072005;28;19920;-81
2020/12/04 05:01:08;;;;;;;;;;;6.50;81.20;;;;;;5056000;28;20286;-81
2020/12/04 05:03:33;;;;;;;;;;;6.50;81.00;;;;;;5071951;28;19962;-81
2020/12/04 05:05:59;;;;;;;;;;;6.50;81.00;;;;;;5054860;28;19948;-81
2020/12/04 05:08:24;;;;;;;;;;;6.50;81.50;;;;;;5055619;28;20003;-81
2020/12/04 05:10:50;;;;;;;;;;;6.60;80.90;;;;;;5073435;28;20353;-81
2020/12/04 05:13:19;;;;;;;;;;;6.60;80.80;;;;;;5073343;28;19912;-81
2020/12/04 05:15:44;;;;;;;;;;;6.50;80.80;;;;;;5071928;28;19982;-81
2020/12/04 05:18:13;;;;;;;;;;;6.60;81.40;;;;;;5055343;28;19925;-81
2020/12/04 05:20:42;;;;;;;;;;;6.60;80.80;;;;;;5070562;28;19980;-81
2020/12/04 05:23:08;;;;;;;;;;;6.60;80.80;;;;;;5072303;28;19970;-81
2020/12/04 05:25:41;;;;;;;;;;;6.60;80.90;;;;;;5055028;28;19931;-81
2020/12/04 05:28:27;;;;;;;;;;;6.60;80.90;;;;;;5072154;28;19951;-81
2020/12/04 05:31:06;;;;;;;;;;;6.60;80.90;;;;;;5077132;28;20007;-81
2020/12/04 05:33:32;;;;;;;;;;;6.60;81.00;;;;;;5093304;28;19918;-81
2020/12/04 05:35:57;;;;;;;;;;;6.70;81.00;;;;;;5092182;28;20006;-81
2020/12/04 05:38:23;;;;;;;;;;;6.70;81.00;;;;;;5093285;28;19916;-81
2020/12/04 05:41:01;;;;;;;;;;;6.70;80.90;;;;;;5091673;28;19957;-83
2020/12/04 05:43:31;;;;;;;;;;;6.70;80.80;;;;;;5074385;28;19967;-80
2020/12/04 05:46:11;;;;;;;;;;;6.70;80.90;;;;;;5070340;28;19913;-83
2020/12/04 05:48:37;;;;;;;;;;;6.80;80.90;;;;;;5079660;28;19908;-81
2020/12/04 05:51:02;;;;;;;;;;;6.80;80.80;;;;;;5073790;28;19917;-81
2020/12/04 05:53:28;;;;;;;;;;;6.80;80.80;;;;;;5071387;28;19988;-82
2020/12/04 05:55:54;;;;;;;;;;;6.80;80.70;;;;;;5069264;28;19970;-82
2020/12/04 05:58:23;;;;;;;;;;;6.80;80.70;;;;;;5048870;28;19924;-83
2020/12/04 06:00:49;;;;;;;;;;;6.80;80.60;;;;;;5072294;28;19908;-81
2020/12/04 06:03:15;;;;;;;;;;;6.90;80.70;;;;;;5072745;28;19912;-82
2020/12/04 06:05:40;;;;;;;;;;;6.80;80.70;;;;;;5071339;28;19912;-83
2020/12/04 06:08:09;;;;;;;;;;;6.90;80.70;;;;;;5071564;28;19952;-84
2020/12/04 06:10:35;;;;;;;;;;;6.90;80.70;;;;;;5072527;28;19958;-83
2020/12/04 06:13:01;;;;;;;;;;;6.90;80.70;;;;;;5071089;28;19908;-83
2020/12/04 06:15:31;;;;;;;;;;;6.90;80.80;;;;;;5070540;28;20415;-82
2020/12/04 06:18:06;;;;;;;;;;;6.90;80.90;;;;;;5071300;28;19920;-83
2020/12/04 06:20:45;;;;;;;;;;;6.90;81.00;;;;;;5071703;28;19908;-82
2020/12/04 06:23:12;;;;;;;;;;;6.90;80.90;;;;;;5071119;28;19908;-82
2020/12/04 06:26:07;;;;;;;;;;;6.90;81.00;;;;;;5070593;28;19932;-82
2020/12/04 06:28:39;;;;;;;;;;;7.00;81.00;;;;;;5083673;28;20480;-82
2020/12/04 06:31:09;;;;;;;;;;;7.00;81.10;;;;;;5072204;28;20386;-82
2020/12/04 06:33:39;;;;;;;;;;;7.00;81.00;;;;;;5070738;28;19912;-82
2020/12/04 06:36:06;;;;;;;;;;;7.00;81.00;;;;;;5070966;28;19915;-82
2020/12/04 06:38:35;;;;;;;;;;;7.10;80.90;;;;;;5070877;28;20011;-82
2020/12/04 06:41:13;;;;;;;;;;;7.10;80.90;;;;;;5071116;28;19912;-82
2020/12/04 06:43:38;;;;;;;;;;;7.10;80.80;;;;;;5054780;28;20704;-82
2020/12/04 06:46:04;;;;;;;;;;;7.20;81.00;;;;;;5070237;28;19917;-82
2020/12/04 06:48:29;;;;;;;;;;;7.10;80.90;;;;;;5053998;28;19963;-82
2020/12/04 06:50:55;;;;;;;;;;;7.20;81.00;;;;;;5053671;28;19913;-82
2020/12/04 06:53:20;;;;;;;;;;;7.20;80.90;;;;;;5070740;28;20370;-82
2020/12/04 06:55:48;;;;;;;;;;;7.20;80.90;;;;;;5070531;28;19919;-81
2020/12/04 06:58:13;;;;;;;;;;;7.30;80.90;;;;;;5070602;28;19917;-82
2020/12/04 07:00:39;;;;;;;;;;;7.30;80.80;;;;;;5070424;28;19916;-82
2020/12/04 07:03:04;;;;;;;;;;;7.30;80.80;;;;;;5052978;28;19954;-82
2020/12/04 07:05:32;;;;;;;;;;;7.30;80.80;;;;;;5053547;28;20286;-82
2020/12/04 07:08:05;;;;;;;;;;;7.40;80.80;;;;;;5070217;28;19997;-82
2020/12/04 07:10:31;;;;;;;;;;;7.40;80.80;;;;;;5068695;28;20002;-82
2020/12/04 07:12:58;;;;;;;;;;;7.40;80.60;;;;;;5058020;28;20000;-82
2020/12/04 07:15:23;;;;;;;;;;;7.50;80.80;;;;;;5051882;28;20042;-82
2020/12/04 07:17:49;;;;;;;;;;;7.50;80.60;;;;;;5050376;28;20384;-83
2020/12/04 07:20:14;;;;;;;;;;;7.60;80.60;;;;;;5050172;28;19913;-83
2020/12/04 07:22:40;;;;;;;;;;;7.60;80.50;;;;;;5049976;28;19919;-83
2020/12/04 07:25:06;;;;;;;;;;;7.60;80.40;;;;;;5050926;28;20466;-83
2020/12/04 07:27:31;;;;;;;;;;;7.70;80.40;;;;;;5050617;28;20290;-82
2020/12/04 07:29:57;;;;;;;;;;;7.70;80.20;;;;;;5050216;28;19920;-83
2020/12/04 07:32:23;;;;;;;;;;;7.70;80.20;;;;;;5051783;28;19909;-84
2020/12/04 07:34:49;;;;;;;;;;;7.80;80.20;;;;;;5085538;28;19908;-83
2020/12/04 07:37:15;;;;;;;;;;;7.80;80.20;;;;;;5070519;28;19927;-83
2020/12/04 07:39:41;;;;;;;;;;;7.80;80.00;;;;;;5053552;28;19916;-83
2020/12/04 07:42:08;;;;;;;;;;;7.90;79.90;;;;;;5070536;28;19917;-83
2020/12/04 07:44:35;;;;;;;;;;;7.90;79.70;;;;;;5070166;28;20274;-83
2020/12/04 07:47:05;;;;;;;;;;;7.90;79.50;;;;;;5070229;28;19966;-83
2020/12/04 07:49:31;;;;;;;;;;;8.00;79.50;;;;;;5070411;28;19913;-83
2020/12/04 07:52:10;;;;;;;;;;;8.00;79.20;;;;;;5053083;28;20328;-83
2020/12/04 07:54:35;;;;;;;;;;;8.00;79.20;;;;;;5070193;28;20366;-83
2020/12/04 07:57:01;;;;;;;;;;;8.00;78.90;;;;;;5053225;28;19917;-83
2020/12/04 07:59:31;;;;;;;;;;;8.10;78.50;;;;;;5071500;28;19912;-84
2020/12/04 08:01:58;;;;;;;;;;;8.10;78.50;;;;;;5065578;28;19969;-83
2020/12/04 08:04:24;;;;;;;;;;;8.20;79.20;;;;;;5078876;28;19916;-82
2020/12/04 08:06:49;;;;;;;;;;;8.20;78.50;;;;;;5059183;28;19916;-83
2020/12/04 08:09:16;;;;;;;;;;;8.20;78.40;;;;;;5068866;28;20364;-83
2020/12/04 08:11:51;;;;;;;;;;;8.20;78.40;;;;;;5069786;28;19918;-84
2020/12/04 08:14:23;;;;;;;;;;;8.20;78.20;;;;;;5071721;28;19921;-84
2020/12/04 08:16:48;;;;;;;;;;;8.30;78.20;;;;;;5073609;28;19909;-84
2020/12/04 08:19:14;;;;;;;;;;;8.30;78.30;;;;;;5073445;28;20278;-84
2020/12/04 08:21:59;;;;;;;;;;;8.30;78.90;;;;;;5074239;28;19923;-84
2020/12/04 08:24:28;;;;;;;;;;;8.30;79.50;;;;;;5080731;23;19935;-84
2020/12/04 08:27:01;;;;;;;;;;;8.40;79.80;;;;;;5074767;28;19924;-84
2020/12/04 08:29:26;;;;;;;;;;;8.30;79.90;;;;;;5073821;28;20419;-84
2020/12/04 08:32:05;;;;;;;;;;;8.30;80.00;;;;;;5073706;28;19917;-84
2020/12/04 08:34:31;;;;;;;;;;;8.40;80.00;;;;;;5069187;28;20042;-85
2020/12/04 08:37:01;;;;;;;;;;;8.40;79.50;;;;;;5071595;28;20420;-83
2020/12/04 08:39:33;;;;;;;;;;;8.40;80.10;;;;;;5073157;28;19917;-85
2020/12/04 08:42:09;;;;;;;;;;;8.40;80.00;;;;;;5073979;28;19909;-84
2020/12/04 08:44:34;;;;;;;;;;;8.40;80.00;;;;;;5073383;28;19908;-85
2020/12/04 08:47:00;;;;;;;;;;;8.40;80.00;;;;;;5074164;28;19920;-84
2020/12/04 08:49:25;;;;;;;;;;;8.40;80.00;;;;;;5073120;28;19963;-84
2020/12/04 08:51:51;;;;;;;;;;;8.40;80.00;;;;;;5084285;28;19948;-84
2020/12/04 08:54:16;;;;;;;;;;;8.50;80.00;;;;;;5076011;28;20297;-84
2020/12/04 08:56:52;;;;;;;;;;;8.50;79.90;;;;;;5092878;28;20015;-84
2020/12/04 08:59:18;;;;;;;;;;;8.60;79.90;;;;;;5059651;28;19919;-84
2020/12/04 09:01:43;;;;;;;;;;;8.60;79.80;;;;;;5072762;28;19967;-84
2020/12/04 09:04:08;;;;;;;;;;;8.70;79.80;;;;;;5069759;28;19912;-84
2020/12/04 09:06:34;;;;;;;;;;;8.70;79.90;;;;;;5056673;28;19959;-84
2020/12/04 09:08:59;;;;;;;;;;;8.70;80.00;;;;;;5072882;28;19973;-84
2020/12/04 09:11:25;;;;;;;;;;;8.80;80.00;;;;;;5072761;28;20362;-84
2020/12/04 09:13:50;;;;;;;;;;;8.80;79.80;;;;;;5071745;28;19920;-84
2020/12/04 09:16:17;;;;;;;;;;;8.80;79.70;;;;;;5055732;28;20062;-85
2020/12/04 09:18:42;;;;;;;;;;;8.90;79.80;;;;;;5071480;28;19920;-85
2020/12/04 09:21:08;;;;;;;;;;;8.90;79.80;;;;;;5056767;28;19917;-86
2020/12/04 09:23:34;;;;;;;;;;;9.00;79.80;;;;;;5056291;28;20290;-87
2020/12/04 09:26:00;;;;;;;;;;;9.00;79.70;;;;;;5055236;28;19947;-85
2020/12/04 09:28:25;;;;;;;;;;;9.00;79.60;;;;;;5072797;28;19912;-86
2020/12/04 09:30:51;;;;;;;;;;;9.10;79.60;;;;;;5056322;28;20025;-87
2020/12/04 09:33:16;;;;;;;;;;;9.10;79.40;;;;;;5057250;28;19959;-88
2020/12/04 09:35:42;;;;;;;;;;;9.10;78.80;;;;;;5057088;28;19912;-88
2020/12/04 09:38:07;;;;;;;;;;;9.10;78.70;;;;;;5073409;28;19920;-84
2020/12/04 09:40:33;;;;;;;;;;;9.10;78.50;;;;;;5073181;28;20389;-84
2020/12/04 09:42:58;;;;;;;;;;;9.10;77.90;;;;;;5061887;28;19909;-83
2020/12/04 09:45:24;;;;;;;;;;;9.10;77.60;;;;;;5083825;28;19923;-83
2020/12/04 09:47:49;;;;;;;;;;;9.00;77.50;;;;;;5072879;28;20297;-84
2020/12/04 09:50:15;;;;;;;;;;;9.00;77.30;;;;;;5056105;28;19935;-83
2020/12/04 09:52:41;;;;;;;;;;;9.00;77.20;;;;;;5070273;28;19920;-81
2020/12/04 09:55:07;;;;;;;;;;;9.00;76.90;;;;;;5071584;28;19926;-83
2020/12/04 09:57:34;;;;;;;;;;;9.00;76.80;;;;;;5069730;28;19960;-83
2020/12/04 10:00:00;;;;;;;;;;;9.00;76.60;;;;;;5071562;28;19912;-83
2020/12/04 10:02:25;;;;;;;;;;;9.00;76.10;;;;;;5071234;28;19913;-83
2020/12/04 10:04:51;;;;;;;;;;;9.00;76.10;;;;;;5072719;28;19916;-83
2020/12/04 10:07:16;;;;;;;;;;;9.00;76.00;;;;;;5055387;28;20007;-82
2020/12/04 10:09:42;;;;;;;;;;;9.00;76.20;;;;;;5071939;28;19917;-82
2020/12/04 10:12:07;;;;;;;;;;;8.90;76.30;;;;;;5072082;28;19909;-83
2020/12/04 10:14:34;;;;;;;;;;;8.90;76.20;;;;;;5071911;28;20550;-84
2020/12/04 10:17:00;;;;;;;;;;;8.90;76.00;;;;;;5055371;28;19913;-83
2020/12/04 10:19:25;;;;;;;;;;;8.90;76.10;;;;;;5071948;28;19995;-83
2020/12/04 10:21:51;;;;;;;;;;;8.90;76.20;;;;;;5070770;28;19916;-82
2020/12/04 10:24:17;;;;;;;;;;;8.90;76.20;;;;;;5071894;28;19928;-82
2020/12/04 10:26:44;;;;;;;;;;;8.90;75.90;;;;;;5072505;28;19916;-82
2020/12/04 10:29:10;;;;;;;;;;;8.90;75.90;;;;;;5069543;28;19962;-82
2020/12/04 10:31:35;;;;;;;;;;;8.90;75.90;;;;;;5071949;28;19955;-82
2020/12/04 10:34:02;;;;;;;;;;;8.90;75.70;;;;;;5069699;28;19908;-83
2020/12/04 10:36:27;;;;;;;;;;;8.90;75.30;;;;;;5072875;28;19947;-83
2020/12/04 10:38:53;;;;;;;;;;;8.80;75.40;;;;;;5071855;28;19987;-83
2020/12/04 10:41:19;;;;;;;;;;;8.80;75.50;;;;;;5071221;28;19916;-82
2020/12/04 10:43:45;;;;;;;;;;;8.80;75.40;;;;;;5071810;28;19913;-82
2020/12/04 10:46:10;;;;;;;;;;;8.90;75.20;;;;;;5070852;28;19951;-82
2020/12/04 10:48:36;;;;;;;;;;;8.90;75.10;;;;;;5071194;28;19962;-82
2020/12/04 10:51:01;;;;;;;;;;;8.90;74.90;;;;;;5071490;28;19919;-82
2020/12/04 10:53:29;;;;;;;;;;;8.80;74.50;;;;;;5051361;28;20256;-82
2020/12/04 10:55:54;;;;;;;;;;;8.80;74.00;;;;;;5051473;28;19921;-82
2020/12/04 10:58:20;;;;;;;;;;;8.80;74.10;;;;;;5068421;28;19924;-82
2020/12/04 11:00:48;;;;;;;;;;;8.80;73.70;;;;;;5052782;28;19913;-82
2020/12/04 11:03:25;;;;;;;;;;;8.80;74.20;;;;;;5053121;28;19913;-82
2020/12/04 11:05:51;;;;;;;;;;;8.80;74.20;;;;;;5068155;28;19908;-82
2020/12/04 11:08:16;;;;;;;;;;;8.80;74.10;;;;;;5070523;28;19923;-82
2020/12/04 11:10:42;;;;;;;;;;;8.80;74.20;;;;;;5071345;28;20358;-82
2020/12/04 11:13:08;;;;;;;;;;;8.80;74.40;;;;;;5054698;28;20289;-82
2020/12/04 11:15:34;;;;;;;;;;;8.80;74.20;;;;;;5072767;28;19916;-82
2020/12/04 11:18:00;;;;;;;;;;;8.80;74.40;;;;;;5072554;28;19917;-82
2020/12/04 11:20:25;;;;;;;;;;;8.90;74.40;;;;;;5073416;28;19963;-82
2020/12/04 11:22:51;;;;;;;;;;;8.90;74.00;;;;;;5071443;28;19916;-82
2020/12/04 11:25:17;;;;;;;;;;;8.80;73.70;;;;;;5069768;28;19920;-82
2020/12/04 11:27:44;;;;;;;;;;;8.90;74.10;;;;;;5070719;28;20393;-82
2020/12/04 11:30:12;;;;;;;;;;;8.90;74.20;;;;;;5072610;28;19919;-82
2020/12/04 11:32:38;;;;;;;;;;;8.90;74.20;;;;;;5055253;28;19919;-82
2020/12/04 11:35:04;;;;;;;;;;;8.90;74.20;;;;;;5071407;28;19917;-83
2020/12/04 11:37:29;;;;;;;;;;;8.90;74.20;;;;;;5071357;28;19927;-82
2020/12/04 11:39:55;;;;;;;;;;;9.00;74.40;;;;;;5054516;28;19913;-82
2020/12/04 11:42:20;;;;;;;;;;;9.00;74.40;;;;;;5071367;28;19916;-82
2020/12/04 11:44:46;;;;;;;;;;;9.00;74.40;;;;;;5071152;28;19944;-82
2020/12/04 11:47:11;;;;;;;;;;;9.00;74.40;;;;;;5072497;28;19947;-82
2020/12/04 11:49:37;;;;;;;;;;;9.00;74.20;;;;;;5075180;28;19971;-82
2020/12/04 11:52:02;;;;;;;;;;;9.00;73.90;;;;;;5058056;28;20409;-82
2020/12/04 11:54:28;;;;;;;;;;;9.00;74.10;;;;;;5076297;28;20346;-82
2020/12/04 11:56:53;;;;;;;;;;;9.00;74.20;;;;;;5058128;28;19923;-82
2020/12/04 11:59:19;;;;;;;;;;;9.10;74.30;;;;;;5058161;28;19947;-82
2020/12/04 12:01:45;;;;;;;;;;;9.10;74.20;;;;;;5074652;28;20373;-82
2020/12/04 12:04:15;;;;;;;;;;;9.10;74.40;;;;;;5075170;28;19913;-82
2020/12/04 12:06:41;;;;;;;;;;;9.10;74.40;;;;;;5073789;28;20037;-82
2020/12/04 12:09:07;;;;;;;;;;;9.10;74.40;;;;;;5073747;28;19970;-83
2020/12/04 12:11:33;;;;;;;;;;;9.10;74.30;;;;;;5053376;28;20007;-83
2020/12/04 12:13:58;;;;;;;;;;;9.10;74.10;;;;;;5073425;28;20353;-83
2020/12/04 12:16:24;;;;;;;;;;;9.10;74.20;;;;;;5072968;28;19917;-83
2020/12/04 12:18:49;;;;;;;;;;;9.20;74.30;;;;;;5075253;28;19924;-83
2020/12/04 12:21:15;;;;;;;;;;;9.20;74.00;;;;;;5075177;28;20062;-82
2020/12/04 12:23:40;;;;;;;;;;;9.20;73.90;;;;;;5073714;28;19912;-82
2020/12/04 12:26:06;;;;;;;;;;;9.10;74.20;;;;;;5073553;28;20007;-82
2020/12/04 12:28:32;;;;;;;;;;;9.10;73.50;;;;;;5073791;28;19909;-82
2020/12/04 12:30:58;;;;;;;;;;;9.20;73.40;;;;;;5072056;28;19913;-82
2020/12/04 12:33:24;;;;;;;;;;;9.10;73.30;;;;;;5073501;28;20354;-82
2020/12/04 12:35:50;;;;;;;;;;;9.10;73.20;;;;;;5074159;28;19913;-82
2020/12/04 12:38:15;;;;;;;;;;;9.20;73.00;;;;;;5072620;28;19925;-82
2020/12/04 12:40:41;;;;;;;;;;;9.20;73.10;;;;;;5072898;28;20285;-82
2020/12/04 12:43:06;;;;;;;;;;;9.20;73.30;;;;;;5052678;28;20329;-82
2020/12/04 12:45:32;;;;;;;;;;;9.20;73.10;;;;;;5054646;28;19919;-82
2020/12/04 12:47:57;;;;;;;;;;;9.20;72.70;;;;;;5054353;28;19952;-82
2020/12/04 12:50:23;;;;;;;;;;;9.20;72.90;;;;;;5061733;28;19920;-82
2020/12/04 12:52:49;;;;;;;;;;;9.20;72.40;;;;;;5073231;28;20381;-82
2020/12/04 12:55:14;;;;;;;;;;;9.20;71.90;;;;;;5073300;28;19920;-82
2020/12/04 12:57:40;;;;;;;;;;;9.20;72.30;;;;;;5073025;28;20138;-82
2020/12/04 13:00:05;;;;;;;;;;;9.20;72.40;;;;;;5056314;28;19966;-82
2020/12/04 13:02:31;;;;;;;;;;;9.20;72.40;;;;;;5074337;28;19932;-82
2020/12/04 13:04:56;;;;;;;;;;;9.30;72.40;;;;;;5073295;28;20456;-82
2020/12/04 13:07:22;;;;;;;;;;;9.30;72.50;;;;;;5073872;28;19916;-82
2020/12/04 13:09:47;;;;;;;;;;;9.30;72.40;;;;;;5074322;28;19923;-82
2020/12/04 13:12:13;;;;;;;;;;;9.30;72.60;;;;;;5056047;28;20386;-82
2020/12/04 13:14:38;;;;;;;;;;;9.30;72.60;;;;;;5074303;28;19934;-82
2020/12/04 13:17:04;;;;;;;;;;;9.30;72.00;;;;;;5073883;28;19919;-82
2020/12/04 13:19:29;;;;;;;;;;;9.30;72.30;;;;;;5074306;28;19935;-83
2020/12/04 13:21:56;;;;;;;;;;;9.30;72.60;;;;;;5072350;28;20396;-82
2020/12/04 13:24:23;;;;;;;;;;;9.30;72.40;;;;;;5056174;28;20386;-82
2020/12/04 13:26:48;;;;;;;;;;;9.30;72.20;;;;;;5072966;28;19908;-82
2020/12/04 13:29:14;;;;;;;;;;;9.30;72.20;;;;;;5071799;28;19974;-82
2020/12/04 13:31:39;;;;;;;;;;;9.40;72.50;;;;;;5055521;28;20282;-82
2020/12/04 13:34:05;;;;;;;;;;;9.40;72.20;;;;;;5071920;28;19920;-82
2020/12/04 13:36:31;;;;;;;;;;;9.40;71.80;;;;;;5073822;28;19915;-82
2020/12/04 13:38:57;;;;;;;;;;;9.40;71.80;;;;;;5073629;28;20304;-82
2020/12/04 13:41:22;;;;;;;;;;;9.40;71.90;;;;;;5073900;28;19908;-82
2020/12/04 13:43:48;;;;;;;;;;;9.40;71.50;;;;;;5072392;28;19962;-82
2020/12/04 13:46:16;;;;;;;;;;;9.50;71.80;;;;;;5055284;28;19928;-82
2020/12/04 13:48:42;;;;;;;;;;;9.50;71.70;;;;;;5072246;28;19913;-82
2020/12/04 13:51:07;;;;;;;;;;;9.50;71.90;;;;;;5073103;28;19909;-82
2020/12/04 13:53:33;;;;;;;;;;;9.50;71.90;;;;;;5073261;28;19908;-82
2020/12/04 13:55:59;;;;;;;;;;;9.50;71.90;;;;;;5073496;28;19916;-82
2020/12/04 13:58:24;;;;;;;;;;;9.50;71.90;;;;;;5073032;28;20262;-82
2020/12/04 14:00:50;;;;;;;;;;;9.50;71.50;;;;;;5051458;28;20007;-82
2020/12/04 14:03:15;;;;;;;;;;;9.50;71.20;;;;;;5071227;28;20550;-82
2020/12/04 14:05:41;;;;;;;;;;;9.50;70.80;;;;;;5055419;28;19913;-82
2020/12/04 14:08:06;;;;;;;;;;;9.50;69.90;;;;;;5071441;28;19920;-85
2020/12/04 14:10:32;;;;;;;;;;;9.50;70.40;;;;;;5068588;28;20281;-85
2020/12/04 14:12:57;;;;;;;;;;;9.40;70.10;;;;;;5055984;28;19979;-86
2020/12/04 14:15:23;;;;;;;;;;;9.40;69.70;;;;;;5067159;28;19923;-85
2020/12/04 14:17:49;;;;;;;;;;;9.40;69.00;;;;;;5073896;28;20011;-86
2020/12/04 14:20:14;;;;;;;;;;;9.40;69.30;;;;;;5072296;28;19916;-87
2020/12/04 14:22:41;;;;;;;;;;;9.40;69.20;;;;;;5072296;28;20390;-85
2020/12/04 14:25:09;;;;;;;;;;;9.40;69.40;;;;;;5077931;23;19952;-82
2020/12/04 14:27:36;;;;;;;;;;;9.40;70.00;;;;;;5072685;28;19921;-82